Time;durP1;ratioP1;P1;durP2;ratioP2;P2;SDS_P1;SDS_P2;PMS_P1;PMS_P2;Temp;Humidity;BMP_temperature;BMP_pressure;BME280_temperature;BME280_humidity;BME280_pressure;Samples;Min_cycle;Max_cycle;Signal;HPM_P1;HPM_P2
2023/07/12 00:01:22;;;;;;;14.25;8.77;;;;;;;;;;4957193;29;20019;-82
2023/07/12 00:03:49;;;;;;;13.63;9.57;;;;;;;;;;4953878;29;20070;-84
2023/07/12 00:06:15;;;;;;;15.32;9.07;;;;;;;;;;4943710;29;20031;-83
2023/07/12 00:08:41;;;;;;;14.75;10.02;;;;;;;;;;4973716;29;20095;-82
2023/07/12 00:11:13;;;;;;;16.08;9.63;;;;;;;;;;4955901;29;20038;-83
2023/07/12 00:13:39;;;;;;;14.85;9.25;;;;;;;;;;4964177;28;20038;-81
2023/07/12 00:16:11;;;;;;;14.32;9.23;;;;;;;;;;4945955;29;20035;-83
2023/07/12 00:18:36;;;;;;;13.35;9.13;;;;;;;;;;4922376;29;20040;-83
2023/07/12 00:21:02;;;;;;;14.00;9.55;;;;;;;;;;4938629;29;20463;-82
2023/07/12 00:23:28;;;;;;;16.02;10.00;;;;;;;;;;4956039;28;20031;-85
2023/07/12 00:25:53;;;;;;;19.08;9.07;;;;;;;;;;4966632;23;20056;-77
2023/07/12 00:28:22;;;;;;;13.77;9.13;;;;;;;;;;4938937;29;20024;-75
2023/07/12 00:30:48;;;;;;;15.02;9.15;;;;;;;;;;4938407;29;20035;-77
2023/07/12 00:33:13;;;;;;;13.52;8.98;;;;;;;;;;4923023;29;20046;-76
2023/07/12 00:35:41;;;;;;;13.88;9.20;;;;;;;;;;4920095;29;20039;-77
2023/07/12 00:38:09;;;;;;;14.35;9.30;;;;;;;;;;4955845;28;20098;-77
2023/07/12 00:40:38;;;;;;;16.48;9.73;;;;;;;;;;4922359;29;20510;-77
2023/07/12 00:43:19;;;;;;;17.08;9.27;;;;;;;;;;4921200;29;20087;-77
2023/07/12 00:45:46;;;;;;;17.45;9.75;;;;;;;;;;4935371;29;20079;-76
2023/07/12 00:48:12;;;;;;;13.35;8.38;;;;;;;;;;4919543;29;20040;-79
2023/07/12 00:50:37;;;;;;;17.48;9.30;;;;;;;;;;4919309;29;20031;-76
2023/07/12 00:53:04;;;;;;;16.75;9.15;;;;;;;;;;4935766;29;20063;-76
2023/07/12 00:55:48;;;;;;;14.65;8.77;;;;;;;;;;4907104;29;20035;-76
2023/07/12 00:58:14;;;;;;;12.48;8.77;;;;;;;;;;4948021;29;20537;-77
2023/07/12 01:00:39;;;;;;;16.27;8.63;;;;;;;;;;4955155;29;20035;-77
2023/07/12 01:03:05;;;;;;;13.23;8.90;;;;;;;;;;4938394;29;20032;-76
2023/07/12 01:05:31;;;;;;;13.30;8.88;;;;;;;;;;4938069;29;20572;-76
2023/07/12 01:07:57;;;;;;;17.75;8.82;;;;;;;;;;4922600;29;20031;-77
2023/07/12 01:10:23;;;;;;;20.33;8.93;;;;;;;;;;4936620;29;20487;-75
2023/07/12 01:12:48;;;;;;;15.07;9.00;;;;;;;;;;4922228;29;20031;-77
2023/07/12 01:15:14;;;;;;;16.63;9.02;;;;;;;;;;4934619;29;20174;-76
2023/07/12 01:17:40;;;;;;;12.57;8.30;;;;;;;;;;4922233;29;20246;-76
2023/07/12 01:20:06;;;;;;;13.85;8.43;;;;;;;;;;4937647;29;20031;-78
2023/07/12 01:22:34;;;;;;;11.10;7.28;;;;;;;;;;4937526;29;20027;-77
2023/07/12 01:25:02;;;;;;;14.18;7.57;;;;;;;;;;4920833;29;20039;-77
2023/07/12 01:27:28;;;;;;;11.77;7.50;;;;;;;;;;4937774;29;20565;-75
2023/07/12 01:29:53;;;;;;;25.17;7.53;;;;;;;;;;4937636;29;20031;-76
2023/07/12 01:32:19;;;;;;;13.27;7.40;;;;;;;;;;4905940;29;20035;-76
2023/07/12 01:34:45;;;;;;;15.70;6.97;;;;;;;;;;4937181;29;20023;-76
2023/07/12 01:37:10;;;;;;;12.55;6.63;;;;;;;;;;4954853;29;20046;-76
2023/07/12 01:39:36;;;;;;;15.25;7.00;;;;;;;;;;4920648;29;20042;-76
2023/07/12 01:42:02;;;;;;;11.63;6.80;;;;;;;;;;4937364;29;20034;-78
2023/07/12 01:44:28;;;;;;;12.15;6.60;;;;;;;;;;4937576;29;20027;-76
2023/07/12 01:46:54;;;;;;;12.75;6.03;;;;;;;;;;4937516;29;20087;-76
2023/07/12 01:49:19;;;;;;;11.88;6.43;;;;;;;;;;4937299;29;20407;-76
2023/07/12 01:51:45;;;;;;;10.95;6.63;;;;;;;;;;4937509;29;20031;-78
2023/07/12 01:54:13;;;;;;;13.38;7.03;;;;;;;;;;4923531;29;20562;-77
2023/07/12 01:56:38;;;;;;;10.45;5.72;;;;;;;;;;4938003;29;20039;-76
2023/07/12 01:59:04;;;;;;;12.48;6.18;;;;;;;;;;4921304;29;20035;-76
2023/07/12 02:01:29;;;;;;;12.45;6.75;;;;;;;;;;4921012;29;20390;-76
2023/07/12 02:03:55;;;;;;;11.63;6.32;;;;;;;;;;4918015;29;20032;-76
2023/07/12 02:06:20;;;;;;;14.52;6.90;;;;;;;;;;4918351;29;20063;-77
2023/07/12 02:08:46;;;;;;;16.42;6.72;;;;;;;;;;4918036;29;20411;-75
2023/07/12 02:11:13;;;;;;;17.33;6.38;;;;;;;;;;4902090;29;20455;-76
2023/07/12 02:13:38;;;;;;;14.45;6.05;;;;;;;;;;4922490;29;20170;-75
2023/07/12 02:16:04;;;;;;;18.67;6.95;;;;;;;;;;4936921;29;20035;-75
2023/07/12 02:18:33;;;;;;;13.70;6.28;;;;;;;;;;4921541;29;20031;-75
2023/07/12 02:20:59;;;;;;;18.20;6.20;;;;;;;;;;4920643;29;20372;-76
2023/07/12 02:23:25;;;;;;;16.60;5.80;;;;;;;;;;4936987;29;20031;-75
2023/07/12 02:25:50;;;;;;;16.38;5.80;;;;;;;;;;4930739;29;20031;-75
2023/07/12 02:28:16;;;;;;;14.45;5.30;;;;;;;;;;4953281;29;20545;-77
2023/07/12 02:30:42;;;;;;;13.05;5.00;;;;;;;;;;4935400;29;20059;-77
2023/07/12 02:33:07;;;;;;;11.38;4.55;;;;;;;;;;4953805;29;20027;-76
2023/07/12 02:35:33;;;;;;;18.13;5.10;;;;;;;;;;4916903;29;20497;-76
2023/07/12 02:37:59;;;;;;;9.85;4.40;;;;;;;;;;4937952;29;20035;-77
2023/07/12 02:40:25;;;;;;;9.07;4.05;;;;;;;;;;4951980;29;20031;-77
2023/07/12 02:42:51;;;;;;;7.25;4.10;;;;;;;;;;4948291;29;20043;-77
2023/07/12 02:45:16;;;;;;;7.47;3.70;;;;;;;;;;4938797;29;20023;-75
2023/07/12 02:47:42;;;;;;;11.32;3.88;;;;;;;;;;4953384;29;20038;-76
2023/07/12 02:50:08;;;;;;;7.20;2.83;;;;;;;;;;4953887;29;20027;-77
2023/07/12 02:52:33;;;;;;;11.38;3.03;;;;;;;;;;4953478;29;20036;-77
2023/07/12 02:54:59;;;;;;;8.02;3.17;;;;;;;;;;4917510;29;20028;-76
2023/07/12 02:57:24;;;;;;;10.43;2.92;;;;;;;;;;4917532;29;20040;-77
2023/07/12 02:59:49;;;;;;;7.20;2.75;;;;;;;;;;4934676;29;20105;-77
2023/07/12 03:02:15;;;;;;;9.23;3.03;;;;;;;;;;4934727;29;20535;-78
2023/07/12 03:04:41;;;;;;;7.65;3.00;;;;;;;;;;4953308;28;20035;-76
2023/07/12 03:07:06;;;;;;;6.45;2.42;;;;;;;;;;4953887;28;20154;-75
2023/07/12 03:09:32;;;;;;;9.95;2.38;;;;;;;;;;4957126;29;20058;-77
2023/07/12 03:11:57;;;;;;;6.70;2.60;;;;;;;;;;4957664;29;20038;-77
2023/07/12 03:14:23;;;;;;;5.45;2.50;;;;;;;;;;4940729;29;20031;-76
2023/07/12 03:16:49;;;;;;;7.25;2.88;;;;;;;;;;4940914;29;20043;-76
2023/07/12 03:19:15;;;;;;;8.07;2.45;;;;;;;;;;4939757;29;20031;-77
2023/07/12 03:21:41;;;;;;;9.23;2.45;;;;;;;;;;4957033;29;20018;-75
2023/07/12 03:24:07;;;;;;;12.18;3.40;;;;;;;;;;4956926;29;20050;-76
2023/07/12 03:26:33;;;;;;;9.02;2.55;;;;;;;;;;4944225;29;20057;-77
2023/07/12 03:28:58;;;;;;;7.60;2.85;;;;;;;;;;4920876;29;20491;-77
2023/07/12 03:31:25;;;;;;;7.57;2.72;;;;;;;;;;4941119;29;20069;-77
2023/07/12 03:33:50;;;;;;;8.20;2.85;;;;;;;;;;4957000;29;20032;-77
2023/07/12 03:36:16;;;;;;;5.63;2.55;;;;;;;;;;4938688;29;20043;-77
2023/07/12 03:38:41;;;;;;;7.30;2.70;;;;;;;;;;4956742;29;20039;-77
2023/07/12 03:41:08;;;;;;;8.73;2.75;;;;;;;;;;4956459;29;20034;-76
2023/07/12 03:43:34;;;;;;;8.43;2.40;;;;;;;;;;4939713;29;20039;-76
2023/07/12 03:45:59;;;;;;;5.80;2.45;;;;;;;;;;4956841;28;20468;-76
2023/07/12 03:48:25;;;;;;;8.02;2.30;;;;;;;;;;4939796;29;20031;-76
2023/07/12 03:50:51;;;;;;;3.75;2.20;;;;;;;;;;4956320;29;20106;-76
2023/07/12 03:53:18;;;;;;;7.35;2.28;;;;;;;;;;4938441;29;20019;-76
2023/07/12 03:55:44;;;;;;;6.53;2.25;;;;;;;;;;4920699;29;20044;-76
2023/07/12 03:58:12;;;;;;;5.57;2.15;;;;;;;;;;4920712;29;20023;-76
2023/07/12 04:00:45;;;;;;;4.50;2.10;;;;;;;;;;4938954;29;20340;-76
2023/07/12 04:03:11;;;;;;;4.63;2.17;;;;;;;;;;4939701;29;20415;-76
2023/07/12 04:05:37;;;;;;;4.57;2.15;;;;;;;;;;4923875;29;20503;-76
2023/07/12 04:08:02;;;;;;;4.72;2.25;;;;;;;;;;4937914;29;20102;-77
2023/07/12 04:10:28;;;;;;;6.88;2.40;;;;;;;;;;4921850;29;20113;-75
2023/07/12 04:12:54;;;;;;;7.50;1.90;;;;;;;;;;4939042;29;20484;-77
2023/07/12 04:15:19;;;;;;;7.45;2.28;;;;;;;;;;4955707;28;20042;-76
2023/07/12 04:17:45;;;;;;;6.15;2.13;;;;;;;;;;4923282;29;20035;-76
2023/07/12 04:20:12;;;;;;;4.93;1.95;;;;;;;;;;4938629;29;20046;-76
2023/07/12 04:22:37;;;;;;;4.32;2.00;;;;;;;;;;4955687;29;20090;-76
2023/07/12 04:25:03;;;;;;;7.13;1.92;;;;;;;;;;4938633;29;20035;-77
2023/07/12 04:27:28;;;;;;;6.00;1.77;;;;;;;;;;4937651;29;20086;-76
2023/07/12 04:29:54;;;;;;;7.53;1.98;;;;;;;;;;4938835;29;20027;-75
2023/07/12 04:32:19;;;;;;;7.72;1.85;;;;;;;;;;4955352;29;20031;-75
2023/07/12 04:34:46;;;;;;;9.43;2.08;;;;;;;;;;4955759;28;20166;-77
2023/07/12 04:37:11;;;;;;;3.00;1.70;;;;;;;;;;4955690;29;20038;-77
2023/07/12 04:39:37;;;;;;;3.30;1.80;;;;;;;;;;4906922;29;20101;-76
2023/07/12 04:42:02;;;;;;;3.47;1.60;;;;;;;;;;4922558;29;20035;-77
2023/07/12 04:44:28;;;;;;;5.47;2.10;;;;;;;;;;4936925;29;20034;-75
2023/07/12 04:46:53;;;;;;;5.40;2.05;;;;;;;;;;4938244;29;20027;-76
2023/07/12 04:49:19;;;;;;;3.38;1.80;;;;;;;;;;4922374;29;20485;-77
2023/07/12 04:51:44;;;;;;;7.88;2.08;;;;;;;;;;4955131;29;20036;-76
2023/07/12 04:54:10;;;;;;;4.25;1.70;;;;;;;;;;4907081;29;20042;-77
2023/07/12 04:56:36;;;;;;;6.95;1.88;;;;;;;;;;4955358;29;20094;-76
2023/07/12 04:59:01;;;;;;;3.75;1.50;;;;;;;;;;4936995;29;20035;-77
2023/07/12 05:01:26;;;;;;;5.72;1.88;;;;;;;;;;4937813;29;20032;-76
2023/07/12 05:03:52;;;;;;;7.32;1.83;;;;;;;;;;4938173;28;20166;-77
2023/07/12 05:06:17;;;;;;;6.10;2.00;;;;;;;;;;4955285;29;20027;-77
2023/07/12 05:08:43;;;;;;;5.10;2.08;;;;;;;;;;4938102;29;20061;-77
2023/07/12 05:11:09;;;;;;;4.07;1.83;;;;;;;;;;4937710;29;20031;-77
2023/07/12 05:13:34;;;;;;;5.30;1.92;;;;;;;;;;4922467;29;20100;-77
2023/07/12 05:16:01;;;;;;;5.25;1.77;;;;;;;;;;4953724;28;20031;-77
2023/07/12 05:18:27;;;;;;;9.60;2.47;;;;;;;;;;4903082;29;20043;-77
2023/07/12 05:20:52;;;;;;;5.22;2.20;;;;;;;;;;4919330;29;20107;-77
2023/07/12 05:23:18;;;;;;;5.45;1.85;;;;;;;;;;4937615;29;20062;-77
2023/07/12 05:25:51;;;;;;;7.90;2.35;;;;;;;;;;4921905;29;20479;-77
2023/07/12 05:28:16;;;;;;;4.22;2.10;;;;;;;;;;4955176;29;20502;-77
2023/07/12 05:30:42;;;;;;;6.90;2.28;;;;;;;;;;4920930;29;20039;-77
2023/07/12 05:33:07;;;;;;;4.25;2.03;;;;;;;;;;4936147;29;20035;-76
2023/07/12 05:35:33;;;;;;;6.85;2.05;;;;;;;;;;4937396;29;20031;-76
2023/07/12 05:37:58;;;;;;;5.65;1.92;;;;;;;;;;4937644;29;20039;-75
2023/07/12 05:40:24;;;;;;;4.75;2.17;;;;;;;;;;4937168;29;20035;-77
2023/07/12 05:42:51;;;;;;;4.70;1.92;;;;;;;;;;4954449;29;20118;-76
2023/07/12 05:45:16;;;;;;;3.47;1.90;;;;;;;;;;4906077;29;20106;-79
2023/07/12 05:47:42;;;;;;;4.82;2.25;;;;;;;;;;4954376;29;20031;-78
2023/07/12 05:50:11;;;;;;;5.13;2.17;;;;;;;;;;4935956;29;20050;-77
2023/07/12 05:52:37;;;;;;;5.68;2.08;;;;;;;;;;4936680;29;20039;-79
2023/07/12 05:55:04;;;;;;;4.90;2.47;;;;;;;;;;4952905;28;20038;-78
2023/07/12 05:57:29;;;;;;;5.72;2.25;;;;;;;;;;4954842;29;20039;-83
2023/07/12 05:59:54;;;;;;;5.22;2.20;;;;;;;;;;4954184;29;20039;-79
2023/07/12 06:02:20;;;;;;;5.57;2.05;;;;;;;;;;4936873;29;20026;-78
2023/07/12 06:04:46;;;;;;;6.80;2.40;;;;;;;;;;4936978;29;20102;-78
2023/07/12 06:07:11;;;;;;;4.88;1.98;;;;;;;;;;4921166;29;20027;-77
2023/07/12 06:09:37;;;;;;;5.93;1.95;;;;;;;;;;4938044;29;20027;-78
2023/07/12 06:12:03;;;;;;;4.80;1.80;;;;;;;;;;4946591;29;20035;-79
2023/07/12 06:14:28;;;;;;;4.93;2.20;;;;;;;;;;4937434;29;20063;-77
2023/07/12 06:16:54;;;;;;;8.95;2.20;;;;;;;;;;4954537;29;20435;-78
2023/07/12 06:19:20;;;;;;;5.13;2.10;;;;;;;;;;4937009;29;20039;-78
2023/07/12 06:21:45;;;;;;;7.10;2.33;;;;;;;;;;4936651;29;20031;-78
2023/07/12 06:24:14;;;;;;;7.18;2.30;;;;;;;;;;4958233;23;20031;31
2023/07/12 06:26:40;;;;;;;6.97;1.92;;;;;;;;;;4883797;29;20048;-81
2023/07/12 06:29:05;;;;;;;4.32;2.05;;;;;;;;;;4897384;29;20119;-83
2023/07/12 06:31:31;;;;;;;4.50;2.20;;;;;;;;;;4890709;29;20480;-81
2023/07/12 06:34:02;;;;;;;6.43;2.30;;;;;;;;;;4865952;29;20032;-82
2023/07/12 06:36:28;;;;;;;6.28;2.13;;;;;;;;;;4897336;29;20056;-83
2023/07/12 06:38:53;;;;;;;6.50;2.10;;;;;;;;;;4880385;29;20445;-83
2023/07/12 06:41:19;;;;;;;5.45;2.10;;;;;;;;;;4897311;29;20035;-83
2023/07/12 06:43:44;;;;;;;7.80;2.25;;;;;;;;;;4895926;29;20097;-80
2023/07/12 06:46:11;;;;;;;5.18;2.00;;;;;;;;;;4887915;29;20484;-87
2023/07/12 06:48:36;;;;;;;4.78;2.33;;;;;;;;;;4915543;29;20043;-82
2023/07/12 06:51:02;;;;;;;6.30;2.30;;;;;;;;;;4883137;29;20127;-82
2023/07/12 06:53:28;;;;;;;5.53;2.00;;;;;;;;;;4915761;29;20028;-82
2023/07/12 06:55:54;;;;;;;9.73;2.00;;;;;;;;;;4915841;29;20032;-82
2023/07/12 06:58:20;;;;;;;7.20;2.03;;;;;;;;;;4899255;29;20036;-82
2023/07/12 07:00:45;;;;;;;5.53;1.80;;;;;;;;;;4898541;29;20095;-82
2023/07/12 07:03:12;;;;;;;5.55;2.08;;;;;;;;;;4897878;29;20055;-84
2023/07/12 07:05:41;;;;;;;6.03;2.30;;;;;;;;;;4899031;29;20040;-83
2023/07/12 07:08:07;;;;;;;8.15;2.08;;;;;;;;;;4898468;29;20032;-84
2023/07/12 07:10:34;;;;;;;4.57;1.83;;;;;;;;;;4914044;29;20036;-83
2023/07/12 07:13:00;;;;;;;6.63;2.13;;;;;;;;;;4916237;29;20111;-84
2023/07/12 07:15:25;;;;;;;10.85;2.10;;;;;;;;;;4899622;29;20043;-88
2023/07/12 07:17:51;;;;;;;3.75;1.90;;;;;;;;;;4899191;29;20036;-85
2023/07/12 07:20:16;;;;;;;4.82;1.90;;;;;;;;;;4914715;29;20036;-86
2023/07/12 07:22:42;;;;;;;5.00;1.92;;;;;;;;;;4915927;29;20024;-85
2023/07/12 07:25:08;;;;;;;6.05;2.25;;;;;;;;;;4915038;29;20123;-85
2023/07/12 07:27:34;;;;;;;6.40;1.85;;;;;;;;;;4900399;29;20040;-85
2023/07/12 07:29:59;;;;;;;3.67;1.88;;;;;;;;;;4919384;29;20472;-85
2023/07/12 07:32:25;;;;;;;5.90;2.22;;;;;;;;;;4906778;29;20127;-85
2023/07/12 07:34:50;;;;;;;5.60;2.38;;;;;;;;;;4906945;29;20498;-87
2023/07/12 07:37:16;;;;;;;3.92;1.90;;;;;;;;;;4894186;29;20507;-83
2023/07/12 07:39:41;;;;;;;7.60;2.90;;;;;;;;;;4909723;29;20036;-88
2023/07/12 07:42:09;;;;;;;4.97;2.40;;;;;;;;;;4928731;29;20033;-89
2023/07/12 07:44:35;;;;;;;7.25;3.15;;;;;;;;;;4895333;29;20063;-87
2023/07/12 07:47:01;;;;;;;5.82;2.90;;;;;;;;;;4904518;29;20481;-89
2023/07/12 07:49:26;;;;;;;7.75;2.95;;;;;;;;;;4870061;29;20067;-89
2023/07/12 07:51:54;;;;;;;7.70;3.30;;;;;;;;;;4890198;29;20072;-89
2023/07/12 07:54:22;;;;;;;10.00;3.70;;;;;;;;;;4898033;29;20050;-86
2023/07/12 07:56:51;;;;;;;12.02;3.95;;;;;;;;;;4918762;29;20036;-84
2023/07/12 07:59:16;;;;;;;11.85;4.40;;;;;;;;;;4907288;29;20036;-85
2023/07/12 08:01:42;;;;;;;10.02;4.45;;;;;;;;;;4939785;29;20067;-85
2023/07/12 08:04:08;;;;;;;20.23;4.15;;;;;;;;;;4893293;29;20076;-85
2023/07/12 08:06:35;;;;;;;13.00;4.68;;;;;;;;;;4918365;29;20036;-83
2023/07/12 08:09:04;;;;;;;9.68;4.05;;;;;;;;;;4910146;29;20040;-84
2023/07/12 08:11:29;;;;;;;12.40;4.32;;;;;;;;;;4900998;29;20080;-85
2023/07/12 08:13:55;;;;;;;15.38;8.10;;;;;;;;;;4915447;29;20029;-80
2023/07/12 08:16:20;;;;;;;19.77;8.50;;;;;;;;;;4900769;29;20036;-80
2023/07/12 08:18:47;;;;;;;25.20;16.05;;;;;;;;;;4905759;29;20032;-88
2023/07/12 08:21:13;;;;;;;13.07;5.32;;;;;;;;;;4886140;29;20032;-89
2023/07/12 08:23:39;;;;;;;9.85;5.80;;;;;;;;;;4886387;29;20165;-87
2023/07/12 08:26:04;;;;;;;11.23;4.07;;;;;;;;;;4920043;29;20044;-88
2023/07/12 08:28:30;;;;;;;9.20;3.88;;;;;;;;;;4932287;29;20031;-87
2023/07/12 08:30:55;;;;;;;7.43;3.33;;;;;;;;;;4937355;29;20035;-87
2023/07/12 08:33:21;;;;;;;9.40;3.92;;;;;;;;;;4919676;29;20420;-88
2023/07/12 08:35:47;;;;;;;5.25;2.75;;;;;;;;;;4919089;29;20039;-87
2023/07/12 08:38:12;;;;;;;6.40;2.42;;;;;;;;;;4931998;29;20025;-87
2023/07/12 08:40:41;;;;;;;7.03;3.28;;;;;;;;;;4929789;29;20507;-87
2023/07/12 08:43:12;;;;;;;8.50;3.58;;;;;;;;;;4901186;29;20040;-89
2023/07/12 08:45:41;;;;;;;7.53;2.85;;;;;;;;;;4896957;29;20036;-88
2023/07/12 08:48:11;;;;;;;6.57;2.92;;;;;;;;;;4918836;29;20049;-86
2023/07/12 08:50:47;;;;;;;8.70;2.78;;;;;;;;;;4934175;29;20013;-86
2023/07/12 08:53:15;;;;;;;7.45;3.05;;;;;;;;;;4931829;29;20032;-89
2023/07/12 08:56:12;;;;;;;7.78;3.10;;;;;;;;;;4933963;29;20032;-90
2023/07/12 09:04:02;;;;;;;;;;;;;;;;;;;;;
2023/07/12 09:07:27;;;;;;;7.30;2.80;;;;;;;;;;4858780;29;20045;-89
2023/07/12 09:09:57;;;;;;;5.72;2.72;;;;;;;;;;4861067;29;20517;-90
2023/07/12 09:12:28;;;;;;;11.82;3.03;;;;;;;;;;4853133;29;20049;-88
2023/07/12 09:14:59;;;;;;;6.13;2.85;;;;;;;;;;4858833;29;20034;-89
2023/07/12 09:17:27;;;;;;;9.48;2.78;;;;;;;;;;4849482;29;20079;-91
2023/07/12 09:19:55;;;;;;;5.82;2.72;;;;;;;;;;4867726;29;20518;-89
2023/07/12 09:22:22;;;;;;;7.47;2.90;;;;;;;;;;4824755;29;20030;-90
2023/07/12 09:24:51;;;;;;;6.07;2.67;;;;;;;;;;4844747;29;20074;-89
2023/07/12 09:27:21;;;;;;;9.05;2.47;;;;;;;;;;4828730;29;20141;-89
2023/07/12 09:29:48;;;;;;;5.78;2.35;;;;;;;;;;4828343;29;20046;-89
2023/07/12 09:32:19;;;;;;;5.93;2.70;;;;;;;;;;4829485;29;20490;-89
2023/07/12 09:34:46;;;;;;;8.82;3.13;;;;;;;;;;4873948;29;20031;-88
2023/07/12 09:37:22;;;;;;;6.72;2.88;;;;;;;;;;4901610;29;20043;-89
2023/07/12 09:39:52;;;;;;;6.53;2.83;;;;;;;;;;4920823;29;20032;-89
2023/07/12 09:42:18;;;;;;;5.78;2.42;;;;;;;;;;4905917;29;20040;-88
2023/07/12 09:44:45;;;;;;;6.57;2.42;;;;;;;;;;4925574;29;20055;-89
2023/07/12 09:47:29;;;;;;;8.95;2.78;;;;;;;;;;4904947;29;20547;-88
2023/07/12 09:50:16;;;;;;;9.13;2.90;;;;;;;;;;4897597;29;20285;-90
2023/07/12 09:53:00;;;;;;;5.28;2.40;;;;;;;;;;4904888;29;20040;-88
2023/07/12 09:55:38;;;;;;;7.65;2.67;;;;;;;;;;4904682;29;20048;-89
2023/07/12 09:58:13;;;;;;;6.97;2.88;;;;;;;;;;4896354;29;20047;-89
2023/07/12 10:00:44;;;;;;;6.72;2.85;;;;;;;;;;4890361;29;20032;-88
2023/07/12 10:03:13;;;;;;;8.00;2.83;;;;;;;;;;4907636;29;20055;-90
2023/07/12 10:05:46;;;;;;;5.88;2.90;;;;;;;;;;4924768;29;20040;-90
2023/07/12 10:08:13;;;;;;;8.02;2.70;;;;;;;;;;4910724;29;20056;-88
2023/07/12 10:10:58;;;;;;;7.25;2.50;;;;;;;;;;4910212;29;20024;-90
2023/07/12 10:13:36;;;;;;;8.60;2.85;;;;;;;;;;4882974;29;20020;-91
2023/07/12 10:16:03;;;;;;;5.60;2.80;;;;;;;;;;4929808;29;20059;-88
2023/07/12 10:18:35;;;;;;;4.87;2.47;;;;;;;;;;4922107;29;20029;-93
2023/07/12 10:21:07;;;;;;;5.78;2.50;;;;;;;;;;4867852;29;20385;-90
2023/07/12 10:23:50;;;;;;;5.03;2.15;;;;;;;;;;4878135;29;20036;-93
2023/07/12 10:26:44;;;;;;;7.13;2.53;;;;;;;;;;4905744;29;20176;-92
2023/07/12 10:29:42;;;;;;;5.15;2.33;;;;;;;;;;4888991;29;20182;-93
2023/07/12 10:32:17;;;;;;;4.80;2.47;;;;;;;;;;4906250;29;20043;-93
2023/07/12 10:35:07;;;;;;;9.05;2.88;;;;;;;;;;4906197;29;20051;-92
2023/07/12 10:38:01;;;;;;;7.40;1.95;;;;;;;;;;4893629;29;20051;-92
2023/07/12 10:40:35;;;;;;;5.90;2.20;;;;;;;;;;4907774;29;20032;-92
2023/07/12 10:43:06;;;;;;;4.22;2.35;;;;;;;;;;4923845;29;20036;-93
2023/07/12 10:45:51;;;;;;;5.28;2.40;;;;;;;;;;4886369;29;20029;-93
2023/07/12 10:48:21;;;;;;;8.45;2.92;;;;;;;;;;4901752;29;20049;-92
2023/07/12 10:50:55;;;;;;;3.72;2.13;;;;;;;;;;4882776;29;20048;-91
2023/07/12 10:53:23;;;;;;;5.57;2.50;;;;;;;;;;4897676;29;20032;-89
2023/07/12 10:56:07;;;;;;;3.88;2.20;;;;;;;;;;4869055;29;20194;-88
2023/07/12 10:58:48;;;;;;;8.55;2.42;;;;;;;;;;4883325;29;20040;-81
2023/07/12 11:01:34;;;;;;;152.27;118.28;;;;;;;;;;4896177;29;20278;-83
2023/07/12 11:04:08;;;;;;;6.38;4.03;;;;;;;;;;4896634;29;20532;-83
2023/07/12 11:06:33;;;;;;;4.70;2.70;;;;;;;;;;4883892;29;20523;-84
2023/07/12 11:08:59;;;;;;;6.93;2.40;;;;;;;;;;4915516;29;20040;-82
2023/07/12 11:11:24;;;;;;;6.45;1.98;;;;;;;;;;4914085;29;20046;-85
2023/07/12 11:13:56;;;;;;;7.10;2.08;;;;;;;;;;4914113;29;20407;-87
2023/07/12 11:16:23;;;;;;;4.88;1.90;;;;;;;;;;4898304;29;20478;-82
2023/07/12 11:18:54;;;;;;;5.20;2.33;;;;;;;;;;4900661;29;20071;-82
2023/07/12 11:21:38;;;;;;;5.55;1.98;;;;;;;;;;4914604;29;20059;-82
2023/07/12 11:24:20;;;;;;;4.70;1.70;;;;;;;;;;4898721;29;20032;-84
2023/07/12 11:26:53;;;;;;;4.70;1.70;;;;;;;;;;4915485;29;20208;-81
2023/07/12 11:29:24;;;;;;;3.53;1.35;;;;;;;;;;4931654;29;20522;-82
2023/07/12 11:31:58;;;;;;;7.35;1.58;;;;;;;;;;4917461;29;20036;-82
2023/07/12 11:34:24;;;;;;;4.90;1.35;;;;;;;;;;4919234;29;20135;-81
2023/07/12 11:36:54;;;;;;;6.45;1.60;;;;;;;;;;4918779;29;20072;-82
2023/07/12 11:39:21;;;;;;;9.90;1.63;;;;;;;;;;4917616;29;20036;-82
2023/07/12 11:41:57;;;;;;;4.60;1.48;;;;;;;;;;4918897;29;20373;-84
2023/07/12 11:44:25;;;;;;;5.25;1.40;;;;;;;;;;4902316;29;20043;-81
2023/07/12 11:46:50;;;;;;;;;;;;;;;;;;4886962;29;20039;-82
2023/07/12 11:49:17;;;;;;;3.80;1.50;;;;;;;;;;4897990;29;19911;-82
2023/07/12 11:51:45;;;;;;;7.07;1.55;;;;;;;;;;4913475;29;20036;-84
2023/07/12 11:54:18;;;;;;;8.13;1.50;;;;;;;;;;4918853;29;20085;-85
2023/07/12 11:56:45;;;;;;;4.75;1.45;;;;;;;;;;4886770;29;20413;-84
2023/07/12 11:59:29;;;;;;;2.92;1.25;;;;;;;;;;4917456;29;20520;-84
2023/07/12 12:01:55;;;;;;;2.35;1.08;;;;;;;;;;4918576;29;20051;-85
2023/07/12 12:04:22;;;;;;;4.13;1.15;;;;;;;;;;4902679;29;20153;-85
2023/07/12 12:06:52;;;;;;;5.18;1.55;;;;;;;;;;4917464;29;20101;-84
2023/07/12 12:09:20;;;;;;;2.75;1.30;;;;;;;;;;4917222;29;20521;-82
2023/07/12 12:11:46;;;;;;;3.15;1.35;;;;;;;;;;4916805;29;20038;-82
2023/07/12 12:14:18;;;;;;;4.25;1.70;;;;;;;;;;4886134;29;20119;-81
2023/07/12 12:16:47;;;;;;;6.38;1.30;;;;;;;;;;4901859;29;20059;-83
2023/07/12 12:19:16;;;;;;;6.68;1.30;;;;;;;;;;4918887;29;20028;-84
2023/07/12 12:21:50;;;;;;;4.40;1.10;;;;;;;;;;4902038;29;20154;-84
2023/07/12 12:24:17;;;;;;;3.33;0.93;;;;;;;;;;4886564;29;20079;-84
2023/07/12 12:26:44;;;;;;;52.40;38.38;;;;;;;;;;4919030;23;20135;-86
2023/07/12 12:29:22;;;;;;;8.85;5.03;;;;;;;;;;4943728;29;20035;-83
2023/07/12 12:32:04;;;;;;;3.55;1.40;;;;;;;;;;4939843;29;20038;-81
2023/07/12 12:34:50;;;;;;;7.72;3.97;;;;;;;;;;4910302;29;20501;-80
2023/07/12 12:37:27;;;;;;;5.95;3.15;;;;;;;;;;4931765;29;20110;-82
2023/07/12 12:40:00;;;;;;;4.63;1.30;;;;;;;;;;4918396;29;20032;-78
2023/07/12 12:42:27;;;;;;;3.92;1.00;;;;;;;;;;4934603;29;20123;-80
2023/07/12 12:44:54;;;;;;;2.70;0.95;;;;;;;;;;4933897;29;20487;-78
2023/07/12 12:47:48;;;;;;;6.38;1.30;;;;;;;;;;4915596;29;20039;-78
2023/07/12 12:50:18;;;;;;;1.85;0.93;;;;;;;;;;4894188;29;20040;-77
2023/07/12 12:52:44;;;;;;;3.13;1.20;;;;;;;;;;4900862;29;20515;-77
2023/07/12 12:55:10;;;;;;;4.13;1.20;;;;;;;;;;4917359;29;20215;-76
2023/07/12 12:57:37;;;;;;;4.82;1.10;;;;;;;;;;4919988;29;20040;-77
2023/07/12 13:00:04;;;;;;;4.25;1.23;;;;;;;;;;4918521;29;20043;-77
2023/07/12 13:02:31;;;;;;;4.95;1.70;;;;;;;;;;4918068;29;20040;-77
2023/07/12 13:05:01;;;;;;;3.22;1.27;;;;;;;;;;4936156;29;20032;-78
2023/07/12 13:07:31;;;;;;;4.65;1.33;;;;;;;;;;4935908;29;20031;-77
2023/07/12 13:10:03;;;;;;;2.53;1.25;;;;;;;;;;4918763;29;20028;-78
2023/07/12 13:12:30;;;;;;;3.70;1.27;;;;;;;;;;4918636;29;20095;-78
2023/07/12 13:15:29;;;;;;;3.33;1.50;;;;;;;;;;4936593;29;20042;-78
2023/07/12 13:17:55;;;;;;;1.90;0.95;;;;;;;;;;4923971;29;20441;-78
2023/07/12 13:20:21;;;;;;;3.00;1.35;;;;;;;;;;4917805;29;20068;-79
2023/07/12 13:22:48;;;;;;;2.70;1.30;;;;;;;;;;4936298;29;20038;-78
2023/07/12 13:25:13;;;;;;;2.80;1.23;;;;;;;;;;4936430;29;20024;-77
2023/07/12 13:27:40;;;;;;;3.80;1.10;;;;;;;;;;4935313;29;20490;-76
2023/07/12 13:30:11;;;;;;;4.78;1.20;;;;;;;;;;4935096;29;20036;-76
2023/07/12 13:32:36;;;;;;;3.45;1.17;;;;;;;;;;4935204;29;20032;-76
2023/07/12 13:35:02;;;;;;;3.33;1.23;;;;;;;;;;4935386;29;20241;-78
2023/07/12 13:37:30;;;;;;;2.95;1.20;;;;;;;;;;4933758;29;20074;-76
2023/07/12 13:39:56;;;;;;;2.63;1.20;;;;;;;;;;4935181;29;20028;-77
2023/07/12 13:42:22;;;;;;;5.22;1.40;;;;;;;;;;4934932;29;20031;-76
2023/07/12 13:44:49;;;;;;;3.05;1.35;;;;;;;;;;4918373;29;20143;-77
2023/07/12 13:47:17;;;;;;;7.23;1.50;;;;;;;;;;4902893;29;20055;-77
2023/07/12 13:49:44;;;;;;;4.22;1.30;;;;;;;;;;4918024;29;20285;-76
2023/07/12 13:52:23;;;;;;;4.10;1.15;;;;;;;;;;4900599;29;20048;-76
2023/07/12 13:54:53;;;;;;;3.95;1.10;;;;;;;;;;4899979;29;20432;-78
2023/07/12 13:57:21;;;;;;;2.85;1.40;;;;;;;;;;4917897;29;20114;-80
2023/07/12 13:59:47;;;;;;;4.60;1.40;;;;;;;;;;4917681;29;20031;-77
2023/07/12 14:02:17;;;;;;;5.05;1.30;;;;;;;;;;4935432;29;20033;-78
2023/07/12 14:04:46;;;;;;;4.18;1.00;;;;;;;;;;4934854;29;20023;-78
2023/07/12 14:07:18;;;;;;;4.75;1.52;;;;;;;;;;4926145;29;20036;-79
2023/07/12 14:09:44;;;;;;;2.28;1.20;;;;;;;;;;4916586;29;20111;-76
2023/07/12 14:12:13;;;;;;;2.90;1.30;;;;;;;;;;4934202;29;20111;-78
2023/07/12 14:14:44;;;;;;;5.53;1.67;;;;;;;;;;4934580;29;20054;-78
2023/07/12 14:17:21;;;;;;;4.50;1.40;;;;;;;;;;4934630;29;20487;-78
2023/07/12 14:19:50;;;;;;;2.65;1.17;;;;;;;;;;4917695;29;20118;-78
2023/07/12 14:22:29;;;;;;;3.30;1.40;;;;;;;;;;4934052;29;20032;-78
2023/07/12 14:24:55;;;;;;;5.75;1.50;;;;;;;;;;4917354;29;20074;-76
2023/07/12 14:27:32;;;;;;;2.42;1.15;;;;;;;;;;4916346;29;20054;-76
2023/07/12 14:30:04;;;;;;;2.60;1.27;;;;;;;;;;4934662;29;20119;-80
2023/07/12 14:32:32;;;;;;;2.67;1.50;;;;;;;;;;4917142;29;20038;-80
2023/07/12 14:35:26;;;;;;;4.20;1.85;;;;;;;;;;4921558;29;20036;-80
2023/07/12 14:37:54;;;;;;;9.07;2.92;;;;;;;;;;4932697;29;20032;-81
2023/07/12 14:40:20;;;;;;;4.15;2.30;;;;;;;;;;4901218;29;20088;-80
2023/07/12 14:42:46;;;;;;;4.38;2.05;;;;;;;;;;4934787;29;20027;-81
2023/07/12 14:45:49;;;;;;;5.10;1.70;;;;;;;;;;4934277;29;20027;-80
2023/07/12 14:48:21;;;;;;;7.07;2.10;;;;;;;;;;4971179;23;20047;-81
2023/07/12 14:50:47;;;;;;;4.75;1.58;;;;;;;;;;4936747;29;20028;-84
2023/07/12 14:53:15;;;;;;;15.07;11.07;;;;;;;;;;4934317;29;20126;-88
2023/07/12 14:55:49;;;;;;;43.33;33.70;;;;;;;;;;4902498;29;20055;-83